Etusivu
METAR-TAF:

METAR-TAF

Lentoasemat :

La Ceiba, Honduras

Leveyspiiri: 15-44N, Pituuspiiri: 086-52W, korkeus merenpinnasta: 3 m

Tämänhetkinen sää

Tämä raportti tehtiin 8 minuuttia sitten, kello 02.00 UTC
Tuuli 4 kn idästä
Lämpötila 29°C
Kosteus 84%
Ilmanpaine 1009 hPa
Näkyvyys: 3000 m
savua,

METAR: MHLC 220200Z 08004KT 3000 FU NSC 29/26 Q1009 A2980 NOSIG

Aika: 20:08 (02:08 UTC)

Sääennuste

Tämä raportti tehtiin 9 tuntia ja 8 minuuttia sitten, kello 17.00 UTC
Ennuste voimassa 21. päivästä klo 18 UTC - 22. päivään klo 18 UTC
Tuuli 8 kn pohjoisesta
Näkyvyys: 3000 m
savua
Tulossa
22. päivästä klo 02 UTC - 22. päivään klo 04 UTC
Tuuli 6 kn idästä
Tulossa
22. päivästä klo 15 UTC - 22. päivään klo 17 UTC
Tuuli 8 kn pohjoisesta
Näkyvyys: 6000 m
Hajanaisia pilviä 3000 ft:n korkeudessa

TAF: MHLC 211700Z 2118/2218 35008KT 3000 FU NSC TX33/2119Z TN24/2212Z BECMG 2202/2204 09006KT BECMG 2215/2217 35008KT 6000 SCT030

Säähavainnot ja -ennusteet yli 4000 lentoasemalta (METAR- ja TAF-raportit).

Käytössä olevat sääasemat on merkitty karttaan keltaisilla ja punaisilla pisteillä.

Aseta hiiri pisteen päälle nähdäksesi sääaseman nimen.

Klikkaa sitten nähdäksesi säähavainnot ja -ennusteet.

Kartan vaihtaminen: klikkaa mustalla rastilla varustettuja vihreitä pisteitä, niin voit zoomata sisään; viivalla varustettua vihreää pistettä, niin voit zoomata ulos tai vihreitä nuolia, niin pääset viereisille kartoille.


METAR-TAF: